Time;durP1;ratioP1;P1;durP2;ratioP2;P2;SDS_P1;SDS_P2;PMS_P1;PMS_P2;Temp;Humidity;BMP_temperature;BMP_pressure;BME280_temperature;BME280_humidity;BME280_pressure;Samples;Min_cycle;Max_cycle;Signal;HPM_P1;HPM_P2
2022/06/03 00:01:18;;;;;;;5.67;1.90;;;;;;;16.32;100.00;100828.05;1721894;83;21528;-46
2022/06/03 00:04:14;;;;;;;9.78;2.15;;;;;;;16.28;100.00;100823.83;1661123;86;21016;-46
2022/06/03 00:06:59;;;;;;;10.77;2.00;;;;;;;16.24;100.00;100840.52;1714710;83;21534;-46
2022/06/03 00:09:53;;;;;;;20.63;2.20;;;;;;;16.21;100.00;100843.25;1716240;83;20964;-46
2022/06/03 00:12:44;;;;;;;9.25;1.98;;;;;;;16.18;100.00;100842.05;1715963;83;21076;-46
2022/06/03 00:15:21;;;;;;;13.93;2.47;;;;;;;16.16;100.00;100849.93;1716104;82;20869;-47
2022/06/03 00:18:12;;;;;;;8.68;1.80;;;;;;;16.12;100.00;100857.95;1716136;83;20897;-47
2022/06/03 00:21:12;;;;;;;11.15;1.85;;;;;;;16.05;100.00;100866.00;1715567;83;20920;-45
2022/06/03 00:23:45;;;;;;;9.93;2.52;;;;;;;15.99;100.00;100868.80;1716014;83;20909;-45
2022/06/03 00:26:32;;;;;;;7.03;2.27;;;;;;;15.93;100.00;100877.72;1689656;83;21450;-44
2022/06/03 00:29:22;;;;;;;12.15;1.85;;;;;;;15.91;100.00;100875.62;1716068;82;21291;-45
2022/06/03 00:32:04;;;;;;;4.00;1.82;;;;;;;15.86;100.00;100870.11;1689411;83;20948;-45
2022/06/03 00:35:27;;;;;;;14.73;2.70;;;;;;;15.80;100.00;100873.34;1716054;83;20984;-44
2022/06/03 00:38:18;;;;;;;12.35;2.05;;;;;;;15.76;100.00;100873.02;1654748;86;21481;-45
2022/06/03 00:41:05;;;;;;;10.55;2.40;;;;;;;15.73;100.00;100887.47;1654720;86;21044;-46
2022/06/03 00:43:58;;;;;;;26.48;2.92;;;;;;;15.75;100.00;100916.98;1694854;83;21129;-46
2022/06/03 00:47:06;;;;;;;11.22;2.25;;;;;;;15.88;100.00;100946.17;1715899;83;21023;-46
2022/06/03 00:49:56;;;;;;;13.35;2.98;;;;;;;15.98;100.00;100966.77;1716081;82;20925;-47
2022/06/03 00:52:49;;;;;;;9.45;2.50;;;;;;;15.99;100.00;100946.29;1715867;83;20964;-46
2022/06/03 00:55:33;;;;;;;11.65;2.75;;;;;;;15.99;100.00;100926.24;1716268;83;21068;-46
2022/06/03 00:58:15;;;;;;;7.83;2.65;;;;;;;16.01;100.00;100958.37;1716055;82;21283;-45
2022/06/03 01:01:09;;;;;;;9.18;3.00;;;;;;;16.03;100.00;100928.30;1716008;82;21613;-46
2022/06/03 01:04:10;;;;;;;12.07;3.17;;;;;;;16.04;100.00;100937.84;1716137;83;21051;-46
2022/06/03 01:07:00;;;;;;;21.00;3.30;;;;;;;16.04;100.00;100970.48;1715365;83;20952;-45
2022/06/03 01:09:36;;;;;;;13.60;2.27;;;;;;;16.04;100.00;100954.38;1716080;83;21012;-45
2022/06/03 01:12:30;;;;;;;6.37;2.27;;;;;;;16.04;100.00;100924.35;1716351;83;21157;-45
2022/06/03 01:15:18;;;;;;;6.60;2.35;;;;;;;16.05;100.00;100948.25;1715352;83;20929;-47
2022/06/03 01:17:52;;;;;;;8.08;2.60;;;;;;;16.06;100.00;100961.70;1715973;83;20924;-46
2022/06/03 01:21:16;;;;;;;9.05;2.33;;;;;;;16.05;100.00;100945.64;1715761;83;21471;-46
2022/06/03 01:24:14;;;;;;;14.03;2.52;;;;;;;16.05;100.00;100913.00;1716091;82;20924;-45
2022/06/03 01:27:23;;;;;;;4.58;2.27;;;;;;;16.01;100.00;100937.48;1689331;83;21083;-45
2022/06/03 01:30:05;;;;;;;10.82;2.47;;;;;;;15.99;100.00;100957.57;1715949;83;20944;-45
2022/06/03 01:33:09;;;;;;;14.85;2.75;;;;;;;15.96;100.00;100904.16;1716008;83;21039;-46
2022/06/03 01:36:03;;;;;;;16.17;2.50;;;;;;;15.95;100.00;100899.84;1716035;83;20959;-47
2022/06/03 01:39:07;;;;;;;11.28;2.60;;;;;;;15.92;100.00;100924.75;1716116;83;21015;-46
2022/06/03 01:42:17;;;;;;;10.32;2.70;;;;;;;15.90;100.00;100900.45;1715022;83;21115;-46
2022/06/03 01:45:03;;;;;;;13.28;3.22;;;;;;;15.89;100.00;100916.55;1715985;83;21019;-45
2022/06/03 01:47:45;;;;;;;12.15;2.67;;;;;;;15.86;100.00;100901.44;1716276;83;21506;-46
2022/06/03 01:50:34;;;;;;;7.05;2.33;;;;;;;15.85;100.00;100886.21;1715914;83;20926;-45
2022/06/03 01:53:39;;;;;;;6.65;2.67;;;;;;;15.84;100.00;100922.36;1716254;83;21517;-45
2022/06/03 01:56:20;;;;;;;16.25;3.83;;;;;;;15.87;100.00;100927.47;1686152;83;21120;-46
2022/06/03 01:59:26;;;;;;;11.93;2.62;;;;;;;15.92;100.00;100924.31;1715849;83;21514;-46
2022/06/03 02:02:42;;;;;;;4.65;2.55;;;;;;;15.96;100.00;100920.29;1715059;83;20929;-44
2022/06/03 02:05:48;;;;;;;9.63;2.60;;;;;;;15.99;100.00;100922.33;1715823;83;20893;-48
2022/06/03 02:08:56;;;;;;;15.33;3.20;;;;;;;16.15;100.00;100932.27;1716307;82;20869;-47
2022/06/03 02:11:59;;;;;;;9.30;2.90;;;;;;;16.15;100.00;100932.27;1715972;82;21634;-46
2022/06/03 02:14:45;;;;;;;10.10;2.70;;;;;;;16.26;100.00;100930.59;1689728;82;20905;-48
2022/06/03 02:17:36;;;;;;;8.18;2.70;;;;;;;16.38;100.00;100924.48;1715925;83;20909;-47
2022/06/03 02:20:38;;;;;;;23.77;3.45;;;;;;;16.53;100.00;100932.66;1715860;83;21059;-46
2022/06/03 02:23:28;;;;;;;8.73;2.80;;;;;;;16.63;100.00;100945.81;1715917;83;21023;-47
2022/06/03 02:26:09;;;;;;;9.28;3.08;;;;;;;16.73;100.00;100912.80;1716026;83;21834;-46
2022/06/03 02:28:42;;;;;;;15.05;3.60;;;;;;;16.76;100.00;100951.45;1654631;86;21000;-46
2022/06/03 02:31:24;;;;;;;13.20;3.87;;;;;;;16.76;100.00;100929.23;1702616;84;20923;-45
2022/06/03 02:34:17;;;;;;;15.90;3.55;;;;;;;16.78;100.00;100935.69;1703100;84;21532;-45
2022/06/03 02:37:24;;;;;;;12.40;3.92;;;;;;;16.76;100.00;100933.15;1703067;84;21018;-45
2022/06/03 02:40:23;;;;;;;10.30;3.58;;;;;;;16.80;100.00;100918.22;1721798;83;21083;-45
2022/06/03 02:43:02;;;;;;;13.55;3.72;;;;;;;16.84;100.00;100949.87;1716607;83;20984;-45
2022/06/03 02:46:08;;;;;;;18.17;4.03;;;;;;;16.86;100.00;100959.81;1695993;84;21047;-44
2022/06/03 02:49:06;;;;;;;11.08;3.85;;;;;;;16.88;100.00;100961.91;1695753;84;21490;-45
2022/06/03 02:52:13;;;;;;;11.30;3.80;;;;;;;16.93;100.00;100948.20;1695798;84;21024;-45
2022/06/03 02:55:16;;;;;;;23.47;3.75;;;;;;;16.99;100.00;100945.86;1670326;84;21252;-46
2022/06/03 02:58:08;;;;;;;9.65;3.22;;;;;;;17.06;100.00;100952.55;1695973;84;21522;-46
2022/06/03 03:01:10;;;;;;;16.70;3.27;;;;;;;17.12;100.00;100953.22;1695862;83;21012;-46
2022/06/03 03:04:32;;;;;;;16.05;3.12;;;;;;;17.19;100.00;100958.17;1695967;83;20980;-45
2022/06/03 03:07:17;;;;;;;12.37;3.75;;;;;;;17.23;100.00;100964.14;1696167;84;21578;-45
2022/06/03 03:10:15;;;;;;;9.30;3.52;;;;;;;17.28;100.00;100989.66;1696252;84;21157;-45
2022/06/03 03:13:12;;;;;;;13.95;4.25;;;;;;;17.33;100.00;101001.27;1664902;84;21071;-46
2022/06/03 03:16:21;;;;;;;12.05;3.08;;;;;;;17.37;100.00;101012.02;1695934;84;20947;-47
2022/06/03 03:19:14;;;;;;;15.13;3.67;;;;;;;17.41;100.00;101024.50;1605916;88;21609;-47
2022/06/03 03:22:33;;;;;;;14.30;3.45;;;;;;;17.43;100.00;101046.23;1683230;84;21046;-45
2022/06/03 03:25:26;;;;;;;9.55;3.62;;;;;;;17.50;100.00;101061.64;1696069;84;21257;-46
2022/06/03 03:28:24;;;;;;;8.25;2.72;;;;;;;17.59;100.00;101060.92;1696089;83;20964;-45
2022/06/03 03:31:02;;;;;;;7.78;2.75;;;;;;;17.69;100.00;101060.95;1696300;84;21443;-46
2022/06/03 03:34:00;;;;;;;16.10;2.95;;;;;;;17.79;100.00;101059.66;1696110;84;20983;-46
2022/06/03 03:37:04;;;;;;;5.58;3.27;;;;;;;17.91;100.00;101066.19;1696288;84;21525;-45
2022/06/03 03:40:27;;;;;;;10.35;3.58;;;;;;;18.09;100.00;101067.71;1666427;84;22254;-46
2022/06/03 03:43:36;;;;;;;6.45;2.50;;;;;;;18.28;100.00;101073.05;1695241;84;20991;-45
2022/06/03 03:46:23;;;;;;;;;;;;;;;18.51;100.00;101077.80;1698629;84;20892;-46
2022/06/03 03:49:35;;;;;;;7.67;2.85;;;;;;;18.63;100.00;101083.84;1696116;84;20122;-46
2022/06/03 03:52:42;;;;;;;11.55;2.80;;;;;;;18.56;100.00;101088.09;1696128;83;21021;-46
2022/06/03 03:55:44;;;;;;;8.60;2.92;;;;;;;18.34;100.00;101080.68;1696077;84;21154;-46
2022/06/03 03:58:19;;;;;;;8.28;3.17;;;;;;;18.18;100.00;101079.59;1696059;84;20917;-45
2022/06/03 04:01:02;;;;;;;6.42;3.02;;;;;;;18.04;100.00;101087.53;1696053;84;20968;-45
2022/06/03 04:04:00;;;;;;;6.03;3.58;;;;;;;17.92;100.00;101084.91;1695966;83;21012;-45
2022/06/03 04:07:02;;;;;;;13.10;3.83;;;;;;;17.86;100.00;101080.39;1696177;83;20957;-46
2022/06/03 04:09:54;;;;;;;10.15;3.70;;;;;;;17.80;100.00;101067.08;1695736;84;21433;-47
2022/06/03 04:13:18;;;;;;;6.87;3.30;;;;;;;17.75;100.00;101079.03;1695933;83;20948;-45
2022/06/03 04:16:16;;;;;;;5.80;3.20;;;;;;;17.72;100.00;101083.08;1696061;84;20997;-45
2022/06/03 04:19:09;;;;;;;4.90;3.80;;;;;;;17.70;100.00;101061.34;1658968;84;20964;-46
2022/06/03 04:21:54;;;;;;;10.63;4.00;;;;;;;17.70;100.00;101050.87;1696077;84;21019;-46
2022/06/03 04:25:00;;;;;;;14.80;4.42;;;;;;;17.69;100.00;101063.56;1696105;84;21172;-47
2022/06/03 04:27:44;;;;;;;15.05;4.30;;;;;;;17.69;100.00;101072.73;1696202;84;20968;-47
2022/06/03 04:30:53;;;;;;;8.50;3.90;;;;;;;17.75;100.00;101072.48;1694915;84;20952;-46
2022/06/03 04:33:55;;;;;;;11.97;3.95;;;;;;;17.83;100.00;101071.35;1695991;84;20926;-45
2022/06/03 04:37:10;;;;;;;8.48;3.85;;;;;;;17.90;100.00;101072.81;1696018;84;21502;-47
2022/06/03 04:39:59;;;;;;;8.68;3.70;;;;;;;17.98;100.00;101081.20;1696102;84;21239;-46
2022/06/03 04:43:01;;;;;;;6.72;3.35;;;;;;;18.06;100.00;101081.80;1695885;84;21597;-46
2022/06/03 04:45:53;;;;;;;8.63;4.87;;;;;;;18.15;100.00;101084.95;1696159;84;21548;-46
2022/06/03 04:49:05;;;;;;;9.68;3.60;;;;;;;18.22;100.00;101073.31;1695569;84;21026;-46
2022/06/03 04:52:12;;;;;;;5.25;3.85;;;;;;;18.31;100.00;101080.78;1696130;84;20960;-45
2022/06/03 04:55:20;;;;;;;16.82;4.67;;;;;;;18.47;100.00;101089.33;1695732;83;21244;-46
2022/06/03 04:58:12;;;;;;;6.20;3.98;;;;;;;18.73;100.00;101086.06;1694682;84;20881;-46
2022/06/03 05:01:04;;;;;;;5.17;3.83;;;;;;;19.08;100.00;101077.17;1695963;83;20936;-46
2022/06/03 05:03:54;;;;;;;4.67;3.25;;;;;;;19.45;100.00;101079.42;1696070;83;20928;-46
2022/06/03 05:06:51;;;;;;;10.72;4.50;;;;;;;19.90;100.00;101088.31;1696055;84;21015;-47
2022/06/03 05:09:48;;;;;;;7.83;3.42;;;;;;;20.17;100.00;101095.34;1696065;83;21323;-46
2022/06/03 05:13:09;;;;;;;3.50;2.95;;;;;;;20.45;100.00;101092.66;1696184;84;21012;-46
2022/06/03 05:16:13;;;;;;;6.25;2.80;;;;;;;20.61;100.00;101092.77;1696029;83;21035;-45
2022/06/03 05:18:53;;;;;;;7.83;2.70;;;;;;;20.66;100.00;101096.45;1695936;84;21012;-45
2022/06/03 05:21:53;;;;;;;6.45;2.87;;;;;;;20.64;100.00;101095.69;1648397;84;20964;-45
2022/06/03 05:24:42;;;;;;;9.00;3.00;;;;;;;20.72;100.00;101092.67;1695928;83;21230;-45
2022/06/03 05:27:48;;;;;;;9.00;2.65;;;;;;;20.82;100.00;101099.17;1696021;84;21000;-46
2022/06/03 05:30:54;;;;;;;5.63;2.60;;;;;;;20.87;100.00;101097.63;1696229;84;21004;-46
2022/06/03 05:33:41;;;;;;;7.90;2.30;;;;;;;21.08;100.00;101097.83;1696126;84;21013;-45
2022/06/03 05:36:28;;;;;;;7.47;2.60;;;;;;;21.38;97.97;101095.81;1696073;84;20921;-47
2022/06/03 05:39:19;;;;;;;;;;;;;;;21.50;97.29;101102.67;1698612;84;21289;-46
2022/06/03 05:42:29;;;;;;;14.50;2.27;;;;;;;21.63;96.44;101110.75;1694744;84;20201;-46
2022/06/03 05:45:28;;;;;;;8.78;2.85;;;;;;;21.65;96.46;101117.65;1673736;84;20928;-46
2022/06/03 05:48:21;;;;;;;4.78;2.30;;;;;;;21.66;94.58;101112.77;1708290;84;21038;-46
2022/06/03 05:50:59;;;;;;;10.85;2.60;;;;;;;21.84;94.65;101121.05;1701361;83;20961;-46
2022/06/03 05:53:40;;;;;;;5.65;2.35;;;;;;;21.89;91.90;101119.86;1708372;82;21247;-45
2022/06/03 05:56:43;;;;;;;6.95;2.35;;;;;;;21.99;90.91;101113.61;1701117;83;20992;-47
2022/06/03 05:59:58;;;;;;;3.95;2.50;;;;;;;22.15;91.20;101094.30;1708363;83;20979;-46
2022/06/03 06:02:45;;;;;;;6.85;2.37;;;;;;;22.54;90.32;101086.34;1701162;84;21031;-46
2022/06/03 06:05:43;;;;;;;9.33;2.55;;;;;;;22.81;87.59;101090.45;1682768;85;21404;-47
2022/06/03 06:08:29;;;;;;;4.03;2.50;;;;;;;22.90;87.48;101088.19;1708454;84;21234;-47
2022/06/03 06:11:32;;;;;;;6.08;2.75;;;;;;;22.85;84.36;101091.58;1679737;84;20911;-47
2022/06/03 06:14:18;;;;;;;5.10;2.00;;;;;;;22.58;85.73;101089.17;1743887;82;20973;-48
2022/06/03 06:16:45;;;;;;;8.08;2.30;;;;;;;22.41;85.40;101097.22;1743692;82;20996;-46
2022/06/03 06:19:48;;;;;;;7.33;2.50;;;;;;;22.31;85.70;101110.92;1743706;82;21538;-45
2022/06/03 06:22:24;;;;;;;3.67;2.15;;;;;;;22.34;87.06;101121.28;1743341;82;21087;-46
2022/06/03 06:24:59;;;;;;;6.67;2.80;;;;;;;22.50;88.03;101145.49;1743892;82;20941;-47
2022/06/03 06:27:34;;;;;;;6.10;2.45;;;;;;;22.59;88.29;101148.91;1743744;82;21506;-47
2022/06/03 06:30:42;;;;;;;5.42;2.50;;;;;;;22.60;87.00;101157.19;1742224;82;21047;-47
2022/06/03 06:33:52;;;;;;;3.50;2.22;;;;;;;22.56;87.03;101162.27;1743804;82;21375;-47
2022/06/03 06:36:44;;;;;;;6.58;3.02;;;;;;;22.48;85.79;101180.34;1743921;82;20881;-47
2022/06/03 06:39:47;;;;;;;4.80;2.40;;;;;;;22.24;86.59;101189.54;1712917;83;20935;-46
2022/06/03 06:42:44;;;;;;;7.20;2.50;;;;;;;22.03;87.97;101201.27;1743765;82;20845;-46
2022/06/03 06:45:22;;;;;;;9.18;2.67;;;;;;;21.67;88.94;101207.14;1747711;81;20952;-46
2022/06/03 06:48:25;;;;;;;6.80;2.12;;;;;;;21.39;90.67;101207.25;1749883;81;20912;-46
2022/06/03 06:50:58;;;;;;;5.25;2.92;;;;;;;21.19;92.48;101192.47;1749949;81;21233;-45
2022/06/03 06:53:51;;;;;;;11.50;3.00;;;;;;;20.93;95.17;101182.37;1749655;82;21023;-46
2022/06/03 06:56:32;;;;;;;6.85;2.67;;;;;;;20.71;96.41;101178.59;1749882;81;20896;-46
2022/06/03 07:00:26;;;;;;;6.87;2.67;;;;;;;20.20;100.00;101194.22;1798411;79;22758;-46
2022/06/03 07:02:59;;;;;;;7.78;3.00;;;;;;;19.84;100.00;101204.19;1758166;81;20984;-48
2022/06/03 07:05:43;;;;;;;7.78;2.90;;;;;;;19.61;100.00;101198.20;1758140;81;21411;-47
2022/06/03 07:08:15;;;;;;;3.80;2.87;;;;;;;19.42;100.00;101202.95;1758003;81;20980;-46
2022/06/03 07:11:18;;;;;;;4.35;2.60;;;;;;;19.26;100.00;101196.65;1724628;83;21010;-48
2022/06/03 07:13:59;;;;;;;8.80;3.17;;;;;;;19.14;100.00;101203.27;1724732;83;20971;-48
2022/06/03 07:19:54;;;;;;;4.75;2.80;;;;;;;18.87;100.00;101213.53;1724492;83;21057;-47
2022/06/03 07:22:45;;;;;;;8.25;2.83;;;;;;;18.80;100.00;101218.61;1724656;83;20951;-46
2022/06/03 07:25:26;;;;;;;7.20;3.00;;;;;;;18.72;100.00;101223.33;1724745;83;20876;-48
2022/06/03 07:28:18;;;;;;;7.33;3.33;;;;;;;18.66;100.00;101188.59;1724077;83;20978;-47
2022/06/03 07:31:11;;;;;;;8.75;3.50;;;;;;;18.66;100.00;101153.19;1721518;83;20992;-47
2022/06/03 07:34:03;;;;;;;6.12;3.05;;;;;;;18.63;100.00;101111.37;1698582;84;21089;-47
2022/06/03 07:36:48;;;;;;;13.15;5.47;;;;;;;18.62;100.00;101107.49;1716653;82;20967;-47
2022/06/03 07:39:48;;;;;;;5.72;3.55;;;;;;;18.65;100.00;101104.73;1636508;85;20943;-46
2022/06/03 07:42:42;;;;;;;7.33;3.00;;;;;;;18.71;100.00;101093.14;1709231;84;21525;-46
2022/06/03 07:45:17;;;;;;;6.45;2.80;;;;;;;18.74;100.00;101117.48;1709390;84;21422;-46
2022/06/03 07:47:44;;;;;;;5.72;2.52;;;;;;;18.78;100.00;101123.42;1705097;84;21215;-48
2022/06/03 07:50:17;;;;;;;4.20;2.58;;;;;;;18.84;100.00;101131.05;1709273;83;21517;-47
2022/06/03 07:52:59;;;;;;;9.63;2.60;;;;;;;18.88;100.00;101132.63;1709180;84;20964;-46
2022/06/03 07:55:29;;;;;;;5.37;2.80;;;;;;;18.93;100.00;101144.21;1709048;84;20884;-47
2022/06/03 07:58:09;;;;;;;3.55;2.40;;;;;;;18.99;100.00;101160.19;1708977;83;20948;-46
2022/06/03 08:00:38;;;;;;;3.52;2.25;;;;;;;19.05;100.00;101176.52;1711979;82;21197;-45
2022/06/03 08:03:18;;;;;;;8.83;3.70;;;;;;;19.13;100.00;101186.69;1702005;84;21017;-47
2022/06/03 08:05:48;;;;;;;5.83;2.30;;;;;;;19.24;100.00;101199.36;1711830;83;21031;-46
2022/06/03 08:11:12;;;;;;;5.15;2.17;;;;;;;19.45;100.00;101216.37;1711651;82;26991;-47
2022/06/03 08:13:45;;;;;;;7.97;2.17;;;;;;;19.48;100.00;101234.17;1701642;84;20857;-46
2022/06/03 08:16:19;;;;;;;8.43;2.45;;;;;;;19.45;100.00;101250.05;1711122;83;20893;-47
2022/06/03 08:18:46;;;;;;;5.83;2.98;;;;;;;19.38;100.00;101266.52;1701303;84;20952;-47
2022/06/03 08:21:38;;;;;;;13.70;3.30;;;;;;;19.31;100.00;101277.34;1711223;83;20975;-48
2022/06/03 08:24:07;;;;;;;5.00;2.22;;;;;;;19.28;100.00;101294.53;1701570;84;21024;-48
2022/06/03 08:26:34;;;;;;;4.47;2.40;;;;;;;19.24;100.00;101307.78;1685141;83;21863;-47
2022/06/03 08:29:15;;;;;;;9.10;2.37;;;;;;;19.20;100.00;101308.84;1701479;84;20920;-47
2022/06/03 08:31:43;;;;;;;6.60;2.85;;;;;;;19.20;100.00;101312.77;1711244;82;20944;-46
2022/06/03 08:34:15;;;;;;;11.05;3.30;;;;;;;19.27;100.00;101309.88;1701468;84;20956;-46
2022/06/03 08:36:42;;;;;;;7.10;3.20;;;;;;;19.28;100.00;101311.14;1711079;83;21648;-46
2022/06/03 08:39:19;;;;;;;4.08;2.80;;;;;;;19.31;100.00;101307.52;1701587;84;21405;-48
2022/06/03 08:42:19;;;;;;;10.88;3.05;;;;;;;19.36;100.00;101302.95;1711178;83;20984;-46
2022/06/03 08:44:58;;;;;;;9.75;2.90;;;;;;;19.41;100.00;101298.36;1701456;84;20987;-46
2022/06/03 08:47:48;;;;;;;7.75;3.00;;;;;;;19.56;100.00;101288.11;1711164;83;20967;-46
2022/06/03 08:50:29;;;;;;;5.05;2.70;;;;;;;19.66;100.00;101281.08;1683116;85;21482;-47
2022/06/03 08:53:28;;;;;;;5.78;3.05;;;;;;;19.70;100.00;101279.18;1682881;84;21605;-45
2022/06/03 08:56:10;;;;;;;6.90;3.08;;;;;;;19.75;100.00;101264.06;1711097;83;20987;-46
2022/06/03 08:58:48;;;;;;;5.35;3.10;;;;;;;19.93;100.00;101268.14;1701539;83;21027;-45
2022/06/03 09:01:24;;;;;;;8.13;3.33;;;;;;;20.15;100.00;101263.23;1710785;83;21501;-46
2022/06/03 09:04:23;;;;;;;7.65;3.05;;;;;;;20.35;100.00;101260.98;1701645;84;20964;-45
2022/06/03 09:07:28;;;;;;;9.35;2.90;;;;;;;20.50;100.00;101260.72;1711114;83;21088;-46
2022/06/03 09:10:18;;;;;;;4.33;3.08;;;;;;;20.59;100.00;101268.63;1701556;84;20959;-43
2022/06/03 09:13:11;;;;;;;3.60;2.45;;;;;;;20.71;100.00;101264.56;1711280;83;21038;-47
2022/06/03 09:15:43;;;;;;;7.55;2.98;;;;;;;20.74;100.00;101270.53;1701518;84;20877;-47
2022/06/03 09:18:27;;;;;;;8.18;2.37;;;;;;;20.67;100.00;101261.22;1711268;83;20896;-49
2022/06/03 09:21:07;;;;;;;3.58;2.12;;;;;;;20.70;100.00;101260.23;1701656;84;21106;-47
2022/06/03 09:23:48;;;;;;;4.62;2.05;;;;;;;20.67;100.00;101263.84;1711155;83;20940;-48
2022/06/03 09:26:39;;;;;;;4.50;2.10;;;;;;;20.65;100.00;101270.96;1701531;84;20900;-48
2022/06/03 09:29:10;;;;;;;3.85;2.17;;;;;;;20.62;100.00;101278.55;1710308;83;20951;-47
2022/06/03 09:31:37;;;;;;;2.40;2.10;;;;;;;20.75;100.00;101276.19;1701504;84;21497;-46
2022/06/03 09:34:06;;;;;;;5.17;2.20;;;;;;;21.10;100.00;101268.35;1711209;83;21537;-47
2022/06/03 09:36:33;;;;;;;3.90;2.30;;;;;;;21.26;100.00;101262.33;1701827;84;20873;-49
2022/06/03 09:39:10;;;;;;;4.25;2.22;;;;;;;21.30;100.00;101271.77;1711045;83;20967;-47
2022/06/03 09:41:44;;;;;;;3.05;2.00;;;;;;;21.22;99.49;101264.73;1701446;84;21569;-48
2022/06/03 09:44:13;;;;;;;4.60;2.15;;;;;;;21.18;99.69;101267.97;1710558;83;21043;-47
2022/06/03 09:46:41;;;;;;;5.22;2.35;;;;;;;21.20;98.26;101269.19;1701461;84;21045;-47
2022/06/03 09:49:08;;;;;;;4.42;2.10;;;;;;;21.33;98.95;101271.61;1684660;83;21501;-47
2022/06/03 09:51:56;;;;;;;4.47;1.80;;;;;;;21.61;98.26;101262.75;1701438;84;20928;-47
2022/06/03 09:54:39;;;;;;;5.08;1.67;;;;;;;21.84;95.52;101277.37;1711010;83;21514;-48
2022/06/03 09:57:31;;;;;;;4.60;1.67;;;;;;;21.99;91.27;101275.69;1701384;84;20900;-48
2022/06/03 10:00:08;;;;;;;2.72;1.72;;;;;;;22.09;90.69;101274.25;1705119;83;21896;-48
2022/06/03 10:02:37;;;;;;;5.95;1.67;;;;;;;22.16;89.69;101284.48;1672500;85;20885;-47
2022/06/03 10:05:06;;;;;;;5.35;1.85;;;;;;;22.08;88.39;101290.16;1700755;83;21047;-48
2022/06/03 10:07:34;;;;;;;1.90;1.67;;;;;;;22.21;87.83;101289.03;1695989;84;21106;-48
2022/06/03 10:12:49;;;;;;;6.58;2.20;;;;;;;22.36;86.04;101288.20;1696024;83;21128;-48
2022/06/03 10:15:39;;;;;;;1.60;1.50;;;;;;;22.42;86.19;101294.06;1695715;84;20968;-47
2022/06/03 10:18:36;;;;;;;6.62;1.62;;;;;;;22.51;86.56;101295.76;1695778;84;21462;-47
2022/06/03 10:21:10;;;;;;;1.00;1.00;;;;;;;22.70;82.90;101302.62;1695885;84;21584;-49
2022/06/03 10:23:54;;;;;;;2.35;1.10;;;;;;;22.85;80.79;101298.73;1696072;84;20968;-47
2022/06/03 10:26:30;;;;;;;2.30;1.40;;;;;;;23.07;79.26;101295.25;1696030;84;21272;-48
2022/06/03 10:28:59;;;;;;;1.75;1.65;;;;;;;23.34;79.44;101297.23;1695221;84;20948;-48
2022/06/03 10:31:31;;;;;;;3.75;1.40;;;;;;;23.52;78.89;101289.16;1666063;84;21555;-48
2022/06/03 10:34:01;;;;;;;4.08;1.70;;;;;;;23.70;78.18;101288.51;1695844;83;21558;-47
2022/06/03 10:36:40;;;;;;;2.15;1.30;;;;;;;23.85;76.31;101291.14;1696035;84;21030;-47
2022/06/03 10:39:11;;;;;;;3.27;1.20;;;;;;;23.89;77.05;101288.71;1696009;84;21495;-47
2022/06/03 10:41:43;;;;;;;2.27;1.40;;;;;;;23.92;76.36;101284.55;1695879;83;20956;-47
2022/06/03 10:44:23;;;;;;;3.52;1.42;;;;;;;23.98;77.21;101289.45;1695927;84;20957;-46
2022/06/03 10:47:06;;;;;;;3.90;1.82;;;;;;;24.08;74.60;101282.66;1696030;84;20975;-46
2022/06/03 10:49:39;;;;;;;2.62;1.92;;;;;;;23.88;73.78;101287.02;1689493;84;20873;-48
2022/06/03 11:03:24;;;;;;;5.28;1.80;;;;;;;22.80;79.55;101273.92;1678615;84;21035;-47
2022/06/03 11:05:51;;;;;;;3.72;1.82;;;;;;;22.79;80.90;101276.18;1695837;83;21857;-47
2022/06/03 11:08:19;;;;;;;9.25;2.30;;;;;;;22.89;81.01;101273.87;1695933;84;21039;-47
2022/06/03 11:10:52;;;;;;;2.30;2.08;;;;;;;23.05;80.57;101272.50;1695746;83;21542;-49
2022/06/03 11:13:39;;;;;;;2.97;2.23;;;;;;;23.28;80.19;101273.84;1696246;84;20960;-46
2022/06/03 11:16:17;;;;;;;3.42;1.98;;;;;;;23.36;79.50;101269.39;1695778;83;21012;-47
2022/06/03 11:18:44;;;;;;;3.17;2.00;;;;;;;23.54;76.93;101263.50;1695878;83;21148;-46
2022/06/03 11:21:23;;;;;;;3.27;2.00;;;;;;;23.56;76.45;101271.31;1688053;84;20937;-48
2022/06/03 11:23:56;;;;;;;2.30;2.10;;;;;;;23.61;74.97;101258.66;1695937;84;20953;-48
2022/06/03 11:26:35;;;;;;;7.87;2.40;;;;;;;23.65;73.82;101251.78;1666944;84;21103;-48
2022/06/03 11:29:10;;;;;;;3.90;2.25;;;;;;;23.68;74.26;101256.87;1694904;84;21008;-48
2022/06/03 11:31:41;;;;;;;3.27;2.12;;;;;;;23.84;73.42;101257.27;1694992;84;21248;-48
2022/06/03 11:34:25;;;;;;;5.53;2.08;;;;;;;24.00;71.40;101259.80;1695937;84;20909;-48
2022/06/03 11:37:00;;;;;;;2.10;2.00;;;;;;;24.16;71.23;101250.45;1696113;84;21000;-47
2022/06/03 11:39:41;;;;;;;3.17;2.00;;;;;;;24.28;70.85;101255.43;1695908;84;21455;-46
2022/06/03 11:42:46;;;;;;;5.10;2.15;;;;;;;24.31;71.96;101247.30;1695720;84;20948;-46
2022/06/03 11:45:22;;;;;;;3.47;2.30;;;;;;;24.46;70.45;101249.91;1695950;84;21322;-47
2022/06/03 11:48:03;;;;;;;2.92;2.58;;;;;;;24.60;72.16;101247.69;1695893;84;20996;-46
2022/06/03 11:50:30;;;;;;;3.95;2.65;;;;;;;24.44;69.90;101247.35;1696029;83;20957;-47
2022/06/03 11:52:57;;;;;;;2.92;2.60;;;;;;;24.28;71.57;101255.92;1696140;84;21008;-47
2022/06/03 11:55:29;;;;;;;2.55;2.42;;;;;;;24.13;72.49;101260.39;1695963;83;20944;-47
2022/06/03 11:58:08;;;;;;;4.45;3.15;;;;;;;23.93;71.25;101247.92;1696088;84;21159;-48
2022/06/03 12:00:51;;;;;;;5.37;2.87;;;;;;;23.78;72.88;101253.20;1695230;83;20881;-47
2022/06/03 12:03:39;;;;;;;2.52;2.40;;;;;;;24.00;72.86;101245.25;1695737;84;21529;-46
2022/06/03 12:06:18;;;;;;;3.62;2.70;;;;;;;24.32;72.38;101247.67;1696010;84;21011;-47
2022/06/03 12:09:02;;;;;;;3.45;2.40;;;;;;;24.29;68.29;101251.00;1693124;84;20964;-46
2022/06/03 12:14:58;;;;;;;7.97;2.50;;;;;;;23.96;69.11;101253.01;1673339;84;20964;-47
2022/06/03 12:17:30;;;;;;;3.37;2.60;;;;;;;23.91;69.22;101252.45;1696025;84;21765;-47
2022/06/03 12:19:58;;;;;;;4.03;2.55;;;;;;;23.67;69.72;101244.61;1695947;84;20955;-47
2022/06/03 12:22:35;;;;;;;5.42;2.80;;;;;;;23.63;70.87;101250.20;1696104;83;21561;-46
2022/06/03 12:25:05;;;;;;;5.95;2.80;;;;;;;23.82;71.20;101257.84;1696069;84;21166;-47
2022/06/03 12:27:38;;;;;;;6.25;2.85;;;;;;;23.76;69.95;101256.41;1695848;83;20969;-46
2022/06/03 12:30:18;;;;;;;2.77;2.47;;;;;;;23.79;70.58;101252.25;1695856;84;20968;-47
2022/06/03 12:33:01;;;;;;;4.58;2.77;;;;;;;23.95;70.25;101246.02;1696034;84;20989;-46
2022/06/03 12:36:05;;;;;;;3.37;2.85;;;;;;;24.33;69.24;101232.66;1696081;83;20996;-47
2022/06/03 12:38:43;;;;;;;2.65;2.55;;;;;;;24.53;67.21;101242.80;1695992;84;21160;-46
2022/06/03 12:41:10;;;;;;;4.40;3.20;;;;;;;24.81;65.56;101247.63;1695900;84;20873;-47
2022/06/03 12:43:56;;;;;;;3.05;2.85;;;;;;;24.77;66.24;101250.57;1666270;84;21051;-46
2022/06/03 12:46:44;;;;;;;4.85;4.42;;;;;;;24.91;64.87;101251.84;1695878;83;20997;-46
2022/06/03 12:49:36;;;;;;;4.20;3.50;;;;;;;24.96;63.00;101244.89;1696046;84;21446;-47
2022/06/03 12:52:08;;;;;;;3.10;2.90;;;;;;;24.95;65.29;101244.52;1687425;84;21060;-48
2022/06/03 12:54:37;;;;;;;3.42;3.12;;;;;;;25.34;64.22;101241.91;1695956;84;20948;-47
2022/06/03 12:57:09;;;;;;;4.42;2.50;;;;;;;25.63;63.09;101239.92;1695556;84;20968;-49
2022/06/03 12:59:52;;;;;;;7.55;3.02;;;;;;;25.85;61.39;101245.50;1695940;83;20933;-47
2022/06/03 13:02:22;;;;;;;3.42;3.10;;;;;;;25.94;61.06;101244.86;1711309;83;20932;-47
2022/06/03 13:05:04;;;;;;;3.98;3.12;;;;;;;25.87;61.43;101241.80;1675511;84;22214;-47
2022/06/03 13:07:34;;;;;;;3.85;3.05;;;;;;;25.75;61.09;101242.19;1711029;83;21413;-47
2022/06/03 13:10:09;;;;;;;3.52;3.20;;;;;;;25.51;61.17;101238.11;1701334;84;20960;-49
2022/06/03 13:12:42;;;;;;;4.70;3.33;;;;;;;25.31;61.91;101242.12;1679492;85;20952;-48
2022/06/03 13:15:24;;;;;;;3.90;3.22;;;;;;;25.12;62.63;101244.70;1711172;83;21572;-47